Time;durP1;ratioP1;P1;durP2;ratioP2;P2;SDS_P1;SDS_P2;PMS_P1;PMS_P2;Temp;Humidity;BMP_temperature;BMP_pressure;BME280_temperature;BME280_humidity;BME280_pressure;Samples;Min_cycle;Max_cycle;Signal;HPM_P1;HPM_P2
2022/06/06 00:00:51;;;;;;;2.00;1.40;;;15.20;99.90;;;;;;4203893;28;20056;-69
2022/06/06 00:02:53;;;;;;;4.40;1.80;;;15.30;99.90;;;;;;4199930;28;20056;-70
2022/06/06 00:04:54;;;;;;;7.10;1.27;;;15.20;99.90;;;;;;4200540;28;20057;-70
2022/06/06 00:06:58;;;;;;;1.38;1.27;;;15.20;99.90;;;;;;4200851;28;20906;-70
2022/06/06 00:09:00;;;;;;;5.25;1.50;;;15.20;99.90;;;;;;4202635;28;20623;-70
2022/06/06 00:11:04;;;;;;;3.17;2.05;;;15.20;99.90;;;;;;4200770;28;20682;-69
2022/06/06 00:13:07;;;;;;;2.00;1.77;;;15.20;99.90;;;;;;4205201;28;20059;-69
2022/06/06 00:15:10;;;;;;;4.28;1.75;;;15.20;99.90;;;;;;4208321;28;20080;-69
2022/06/06 00:17:12;;;;;;;2.38;1.80;;;15.20;99.90;;;;;;4204345;28;20053;-69
2022/06/06 00:19:14;;;;;;;1.88;1.50;;;15.20;99.90;;;;;;4203498;28;20060;-69
2022/06/06 00:21:16;;;;;;;3.97;1.75;;;15.20;99.90;;;;;;4200650;28;20776;-69
2022/06/06 00:23:18;;;;;;;1.80;1.55;;;15.20;99.90;;;;;;4198855;28;20061;-69
2022/06/06 00:25:19;;;;;;;1.50;1.40;;;15.10;99.90;;;;;;4218836;28;20072;-70
2022/06/06 00:27:21;;;;;;;1.80;1.40;;;15.10;99.90;;;;;;4201383;28;20061;-70
2022/06/06 00:29:23;;;;;;;1.65;1.55;;;15.10;99.90;;;;;;4211163;28;20191;-70
2022/06/06 00:36:05;;;;;;;9.90;2.03;;;15.10;99.90;;;;;;4206859;28;20815;-70
2022/06/06 00:38:07;;;;;;;3.35;1.60;;;15.00;99.90;;;;;;4211188;28;20063;-70
2022/06/06 00:40:11;;;;;;;1.75;1.65;;;15.00;99.90;;;;;;4203463;28;20053;-70
2022/06/06 00:42:35;;;;;;;2.80;1.88;;;15.00;99.90;;;;;;4204437;28;20056;-71
2022/06/06 00:44:39;;;;;;;1.77;1.67;;;15.00;99.90;;;;;;4207919;28;20891;-69
2022/06/06 00:46:50;;;;;;;1.67;1.58;;;15.00;99.90;;;;;;4204994;28;20057;-69
2022/06/06 00:48:52;;;;;;;3.20;1.98;;;15.10;99.90;;;;;;4204506;28;20067;-70
2022/06/06 00:51:01;;;;;;;2.60;2.20;;;15.00;99.90;;;;;;4206534;28;20056;-69
2022/06/06 00:53:04;;;;;;;2.88;1.70;;;15.10;99.90;;;;;;4208206;28;20099;-70
2022/06/06 00:55:15;;;;;;;4.30;2.72;;;15.10;99.90;;;;;;4205857;28;20063;-70
2022/06/06 00:57:22;;;;;;;2.20;1.95;;;15.10;99.90;;;;;;4207611;28;20056;-70
2022/06/06 00:59:28;;;;;;;5.38;2.03;;;15.00;99.90;;;;;;4207083;28;20665;-69
2022/06/06 01:01:31;;;;;;;2.10;1.90;;;15.10;99.90;;;;;;4205670;28;20095;-69
2022/06/06 01:03:35;;;;;;;3.28;1.90;;;15.00;99.90;;;;;;4205399;28;20103;-69
2022/06/06 01:05:38;;;;;;;3.90;1.75;;;15.10;99.90;;;;;;4205884;28;20052;-69
2022/06/06 01:07:41;;;;;;;2.40;2.20;;;15.00;99.90;;;;;;4207142;28;20823;-70
2022/06/06 01:09:43;;;;;;;2.20;1.95;;;15.10;99.90;;;;;;4206830;28;20787;-69
2022/06/06 01:11:59;;;;;;;2.35;1.75;;;15.10;99.90;;;;;;4201380;28;20096;-70
2022/06/06 01:14:02;;;;;;;2.55;2.10;;;15.10;99.90;;;;;;4201551;28;20106;-69
2022/06/06 01:16:25;;;;;;;2.33;2.05;;;15.10;99.90;;;;;;4200398;28;20800;-70
2022/06/06 01:18:55;;;;;;;3.92;2.00;;;15.10;99.90;;;;;;4206013;28;20052;-70
2022/06/06 01:21:14;;;;;;;2.17;2.03;;;15.10;99.90;;;;;;4211279;28;20057;-70
2022/06/06 01:23:37;;;;;;;2.17;2.00;;;15.10;99.90;;;;;;4201690;28;20783;-69
2022/06/06 01:25:48;;;;;;;3.63;2.05;;;15.10;99.90;;;;;;4200106;28;20092;-69
2022/06/06 01:28:04;;;;;;;1.80;1.70;;;15.10;99.90;;;;;;4208540;28;20059;-70
2022/06/06 01:30:11;;;;;;;2.55;1.90;;;15.00;99.90;;;;;;4201964;28;20068;-69
2022/06/06 01:32:16;;;;;;;3.75;1.98;;;15.10;99.90;;;;;;4202203;28;20799;-69
2022/06/06 01:34:42;;;;;;;3.95;2.20;;;15.00;99.90;;;;;;4205152;28;20064;-70
2022/06/06 01:36:49;;;;;;;2.10;1.77;;;15.00;99.90;;;;;;4198541;28;20634;-70
2022/06/06 01:38:51;;;;;;;2.08;1.90;;;15.00;99.90;;;;;;4211310;28;20092;-69
2022/06/06 01:40:59;;;;;;;4.60;2.50;;;15.00;99.90;;;;;;4199319;28;20875;-69
2022/06/06 01:43:15;;;;;;;2.25;2.15;;;15.00;99.90;;;;;;4207272;28;20116;-69
2022/06/06 01:45:27;;;;;;;2.85;2.33;;;14.90;99.90;;;;;;4205799;28;20060;-69
2022/06/06 01:47:53;;;;;;;2.72;2.47;;;14.90;99.90;;;;;;4204914;28;20084;-70
2022/06/06 01:49:56;;;;;;;2.75;2.53;;;14.90;99.90;;;;;;4205059;28;20052;-69
2022/06/06 01:52:05;;;;;;;4.32;2.22;;;14.90;99.90;;;;;;4205745;28;20079;-69
2022/06/06 01:54:08;;;;;;;2.75;2.53;;;14.90;99.90;;;;;;4209842;28;20099;-70
2022/06/06 01:56:14;;;;;;;4.63;2.30;;;14.90;99.90;;;;;;4209403;28;20055;-70
2022/06/06 01:58:23;;;;;;;2.85;2.60;;;14.90;99.90;;;;;;4205905;28;20060;-69
2022/06/06 02:00:26;;;;;;;4.75;2.60;;;14.80;99.90;;;;;;4208346;28;20179;-70
2022/06/06 02:02:27;;;;;;;2.50;2.30;;;14.80;99.90;;;;;;4207032;28;20171;-69
2022/06/06 02:04:30;;;;;;;2.50;2.40;;;14.80;99.90;;;;;;4207630;28;20063;-69
2022/06/06 02:06:31;;;;;;;2.40;2.20;;;14.80;99.90;;;;;;4209172;28;20066;-69
2022/06/06 02:08:33;;;;;;;3.00;2.10;;;14.80;99.90;;;;;;4209579;28;20853;-70
2022/06/06 02:10:35;;;;;;;2.40;2.20;;;14.90;99.90;;;;;;4211870;28;20057;-70
2022/06/06 02:12:39;;;;;;;2.78;2.53;;;14.90;99.90;;;;;;4209343;28;20148;-69
2022/06/06 02:14:41;;;;;;;4.72;1.98;;;14.90;99.90;;;;;;4208830;28;20062;-69
2022/06/06 02:16:42;;;;;;;2.63;2.42;;;14.80;99.90;;;;;;4207485;28;20833;-69
2022/06/06 02:18:44;;;;;;;2.75;2.17;;;14.90;99.90;;;;;;4207583;28;20099;-69
2022/06/06 02:20:46;;;;;;;4.35;2.30;;;14.80;99.90;;;;;;4207145;28;20532;-69
2022/06/06 02:22:48;;;;;;;2.90;2.63;;;14.80;99.90;;;;;;4213300;28;20951;-70
2022/06/06 02:24:50;;;;;;;2.65;2.45;;;14.80;99.90;;;;;;4214108;28;21036;-69
2022/06/06 02:26:52;;;;;;;2.88;2.50;;;14.70;99.90;;;;;;4212294;28;20060;-69
2022/06/06 02:28:54;;;;;;;6.05;2.38;;;14.70;99.90;;;;;;4213517;28;20060;-69
2022/06/06 02:30:55;;;;;;;2.50;2.30;;;14.60;99.90;;;;;;4210405;28;20100;-69
2022/06/06 02:32:57;;;;;;;2.20;2.10;;;14.60;99.90;;;;;;4214094;28;20898;-69
2022/06/06 02:34:59;;;;;;;3.90;2.50;;;14.60;99.90;;;;;;4210438;28;20155;-69
2022/06/06 02:37:01;;;;;;;4.10;2.20;;;14.50;99.90;;;;;;4213441;28;20949;-69
2022/06/06 02:39:03;;;;;;;2.40;2.20;;;14.40;99.90;;;;;;4212331;28;20803;-69
2022/06/06 02:41:08;;;;;;;2.47;2.28;;;14.40;99.90;;;;;;4209883;28;20063;-69
2022/06/06 02:43:10;;;;;;;2.78;2.22;;;14.30;99.90;;;;;;4209334;28;20138;-69
2022/06/06 02:45:15;;;;;;;2.72;2.20;;;14.30;99.90;;;;;;4206736;28;20060;-70
2022/06/06 02:47:17;;;;;;;4.07;2.33;;;14.30;99.90;;;;;;4210375;28;20057;-70
2022/06/06 02:49:19;;;;;;;3.40;2.80;;;14.30;99.90;;;;;;4209046;28;20071;-69
2022/06/06 02:51:21;;;;;;;3.95;2.53;;;14.20;99.90;;;;;;4209473;28;20060;-69
2022/06/06 02:53:23;;;;;;;3.97;2.63;;;14.10;99.90;;;;;;4210983;28;20851;-69
2022/06/06 02:55:25;;;;;;;2.33;2.13;;;14.10;99.90;;;;;;4208071;28;20056;-69
2022/06/06 02:57:27;;;;;;;2.90;2.15;;;14.10;99.90;;;;;;4200490;28;20067;-69
2022/06/06 02:59:32;;;;;;;3.08;2.53;;;14.10;99.90;;;;;;4201834;28;20717;-69
2022/06/06 03:01:34;;;;;;;2.53;2.25;;;14.00;99.90;;;;;;4202272;28;20092;-69
2022/06/06 03:03:37;;;;;;;2.67;2.47;;;14.00;99.90;;;;;;4205527;28;20803;-69
2022/06/06 03:06:01;;;;;;;3.55;2.45;;;14.00;99.90;;;;;;4202023;28;20061;-69
2022/06/06 03:08:34;;;;;;;3.35;3.15;;;14.00;99.90;;;;;;4207622;28;20067;-69
2022/06/06 03:10:51;;;;;;;4.43;2.53;;;13.90;99.90;;;;;;4211848;28;20084;-69
2022/06/06 03:13:21;;;;;;;2.80;2.60;;;13.80;99.90;;;;;;4206428;28;20057;-69
2022/06/06 03:20:46;;;;;;;2.88;2.67;;;13.70;99.90;;;;;;4210430;28;20795;-69
2022/06/06 03:21:20;;;;;;;4.32;2.38;;;13.70;99.90;;;;;;4205364;28;20733;-69
2022/06/06 03:23:26;;;;;;;2.60;2.40;;;13.70;99.90;;;;;;4195940;28;20068;-68
2022/06/06 03:25:33;;;;;;;2.72;2.53;;;13.60;99.90;;;;;;4208038;28;20057;-69
2022/06/06 03:28:15;;;;;;;3.65;2.42;;;13.60;99.90;;;;;;4208001;28;20067;-69
2022/06/06 03:30:41;;;;;;;4.95;2.50;;;13.70;99.90;;;;;;4212074;28;20088;-68
2022/06/06 03:32:48;;;;;;;3.75;3.45;;;13.70;99.90;;;;;;4206841;28;20046;-69
2022/06/06 03:34:55;;;;;;;5.20;4.75;;;13.60;99.90;;;;;;4205691;28;20100;-69
2022/06/06 03:37:21;;;;;;;3.60;3.30;;;13.60;99.90;;;;;;4206695;28;20061;-69
2022/06/06 03:39:35;;;;;;;4.95;4.53;;;13.70;99.90;;;;;;4203997;28;20067;-69
2022/06/06 03:42:09;;;;;;;7.55;4.15;;;13.70;99.90;;;;;;4207688;28;20083;-69
2022/06/06 03:44:25;;;;;;;3.88;2.83;;;13.80;99.90;;;;;;4208737;28;20095;-69
2022/06/06 03:46:33;;;;;;;4.15;3.00;;;13.80;99.90;;;;;;4202287;28;20794;-69
2022/06/06 03:48:50;;;;;;;3.92;3.13;;;13.90;99.90;;;;;;4203931;28;20065;-69
2022/06/06 03:50:58;;;;;;;4.60;2.83;;;14.00;99.90;;;;;;4208417;28;20060;-69
2022/06/06 03:53:12;;;;;;;3.17;2.78;;;14.00;99.90;;;;;;4201276;28;20129;-69
2022/06/06 03:55:48;;;;;;;6.10;2.65;;;14.10;99.90;;;;;;4200682;28;20924;-69
2022/06/06 03:57:52;;;;;;;2.72;2.25;;;14.20;99.90;;;;;;4212134;28;20060;-69
2022/06/06 03:59:57;;;;;;;4.70;2.50;;;14.20;99.90;;;;;;4199266;28;20892;-69
2022/06/06 04:02:03;;;;;;;6.22;2.47;;;14.20;99.90;;;;;;4198441;28;20061;-69
2022/06/06 04:04:06;;;;;;;4.13;2.47;;;14.20;99.90;;;;;;4198805;28;20282;-69
2022/06/06 04:06:08;;;;;;;5.15;2.30;;;14.20;99.90;;;;;;4207842;28;20056;-69
2022/06/06 04:08:10;;;;;;;2.90;2.65;;;14.20;99.90;;;;;;4199838;28;20211;-70
2022/06/06 04:10:14;;;;;;;4.05;2.65;;;14.30;99.90;;;;;;4212289;28;20063;-71
2022/06/06 04:12:59;;;;;;;3.40;2.50;;;14.30;99.90;;;;;;4200088;28;20184;-71
2022/06/06 04:15:41;;;;;;;4.25;2.92;;;14.30;99.90;;;;;;4214195;28;20057;-71
2022/06/06 04:17:49;;;;;;;3.33;2.33;;;14.40;99.90;;;;;;4177913;28;20099;-71
2022/06/06 04:20:20;;;;;;;3.03;2.83;;;14.40;99.90;;;;;;4210457;28;20067;-71
2022/06/06 04:22:27;;;;;;;4.95;2.60;;;14.40;99.90;;;;;;4206813;28;20048;-71
2022/06/06 04:25:01;;;;;;;4.60;2.22;;;14.50;99.90;;;;;;4207369;28;20167;-71
2022/06/06 04:27:06;;;;;;;2.55;2.35;;;14.50;99.90;;;;;;4209932;28;21103;-71
2022/06/06 04:29:38;;;;;;;3.10;2.80;;;14.60;99.90;;;;;;4207866;28;20062;-71
2022/06/06 04:31:52;;;;;;;2.33;2.15;;;14.60;99.90;;;;;;4208195;28;20061;-71
2022/06/06 04:34:19;;;;;;;4.13;2.60;;;14.60;99.90;;;;;;4202935;28;20053;-71
2022/06/06 04:36:37;;;;;;;4.72;2.35;;;14.70;99.90;;;;;;4205416;28;20087;-71
2022/06/06 04:38:54;;;;;;;2.65;2.40;;;14.80;99.90;;;;;;4205595;28;20111;-71
2022/06/06 04:41:13;;;;;;;2.88;2.47;;;14.80;99.90;;;;;;4206382;28;20053;-73
2022/06/06 04:43:23;;;;;;;2.65;2.40;;;14.90;99.90;;;;;;4205096;28;20833;-72
2022/06/06 04:45:36;;;;;;;3.50;2.75;;;15.00;99.90;;;;;;4207393;28;20067;-72
2022/06/06 04:47:41;;;;;;;3.97;3.35;;;15.10;99.90;;;;;;4203256;28;20057;-72
2022/06/06 04:49:44;;;;;;;5.18;2.75;;;15.10;99.90;;;;;;4205142;28;20056;-72
2022/06/06 04:51:47;;;;;;;2.47;2.28;;;15.20;99.90;;;;;;4204653;28;20931;-72
2022/06/06 04:53:54;;;;;;;2.78;2.35;;;15.30;99.90;;;;;;4203577;28;20790;-72
2022/06/06 04:55:57;;;;;;;2.72;2.47;;;15.40;99.90;;;;;;4202902;28;20068;-72
2022/06/06 04:58:02;;;;;;;6.45;2.60;;;15.40;99.90;;;;;;4209148;28;20060;-72
2022/06/06 05:00:08;;;;;;;2.80;2.13;;;15.50;99.90;;;;;;4206679;28;20056;-72
2022/06/06 05:02:09;;;;;;;2.50;2.30;;;15.50;99.90;;;;;;4209080;28;20861;-72
2022/06/06 05:04:11;;;;;;;3.85;2.38;;;15.60;99.90;;;;;;4202998;28;20061;-72
2022/06/06 05:06:41;;;;;;;2.55;2.35;;;15.70;99.90;;;;;;4207358;28;20056;-72
2022/06/06 05:09:01;;;;;;;2.63;2.20;;;15.70;99.90;;;;;;4206537;28;20063;-72
2022/06/06 05:11:12;;;;;;;;;;;15.90;99.90;;;;;;4202347;28;20134;-72
2022/06/06 05:13:36;;;;;;;3.00;2.28;;;16.00;99.90;;;;;;4202361;28;19935;-72
2022/06/06 05:16:05;;;;;;;2.33;2.13;;;16.10;99.90;;;;;;4201416;28;20061;-72
2022/06/06 05:18:16;;;;;;;2.63;2.20;;;16.30;99.90;;;;;;4165412;28;20049;-72
2022/06/06 05:20:50;;;;;;;2.47;2.28;;;16.30;99.90;;;;;;4201471;28;20092;-72
2022/06/06 05:23:17;;;;;;;5.45;2.42;;;16.30;99.90;;;;;;4202869;28;20129;-72
2022/06/06 05:25:25;;;;;;;2.03;1.90;;;16.30;99.90;;;;;;4206933;28;20607;-72
2022/06/06 05:28:02;;;;;;;2.40;2.20;;;16.20;99.90;;;;;;4206197;28;20053;-72
2022/06/06 05:30:12;;;;;;;2.97;2.38;;;16.20;99.90;;;;;;4200382;28;20057;-72
2022/06/06 05:32:34;;;;;;;2.70;2.15;;;16.20;99.90;;;;;;4207463;28;20056;-72
2022/06/06 05:34:43;;;;;;;2.58;2.03;;;16.20;99.90;;;;;;4214187;28;20060;-72
2022/06/06 05:36:57;;;;;;;3.65;2.47;;;16.20;99.90;;;;;;4203457;28;20903;-72
2022/06/06 05:39:23;;;;;;;2.15;2.03;;;16.20;99.90;;;;;;4204918;28;20052;-72
2022/06/06 05:41:34;;;;;;;2.47;2.28;;;16.20;99.90;;;;;;4209256;28;20911;-72
2022/06/06 05:43:42;;;;;;;2.50;2.30;;;16.20;99.90;;;;;;4205314;28;20212;-72
2022/06/06 05:46:04;;;;;;;2.58;2.17;;;16.30;99.90;;;;;;4209740;28;20069;-72
2022/06/06 05:48:29;;;;;;;2.47;2.28;;;16.40;99.90;;;;;;4207550;28;20100;-73
2022/06/06 05:50:52;;;;;;;2.40;2.30;;;16.60;99.90;;;;;;4208212;28;20060;-72
2022/06/06 05:53:38;;;;;;;2.97;2.33;;;16.70;99.90;;;;;;4208960;28;20083;-72
2022/06/06 05:56:14;;;;;;;3.20;2.10;;;16.90;99.90;;;;;;4209677;28;20057;-72
2022/06/06 05:58:32;;;;;;;2.50;2.25;;;17.10;99.90;;;;;;4208576;28;20056;-72
2022/06/06 06:00:56;;;;;;;2.60;2.08;;;17.20;99.90;;;;;;4209877;28;21370;-72
2022/06/06 06:03:06;;;;;;;2.80;2.20;;;17.20;99.90;;;;;;4209358;28;20175;-72
2022/06/06 06:05:33;;;;;;;2.33;1.88;;;17.30;99.90;;;;;;4210171;28;20599;-72
2022/06/06 06:07:43;;;;;;;2.10;2.00;;;17.50;99.90;;;;;;4211331;28;20951;-72
2022/06/06 06:10:00;;;;;;;;;;;17.70;99.90;;;;;;4208543;28;20879;-72
2022/06/06 06:12:18;;;;;;;4.70;2.30;;;17.80;99.90;;;;;;4207473;28;19928;-72
2022/06/06 06:14:47;;;;;;;2.60;2.40;;;18.00;99.90;;;;;;4206732;28;20176;-72
2022/06/06 06:16:53;;;;;;;3.72;2.38;;;18.00;99.90;;;;;;4211364;28;20138;-72
2022/06/06 06:19:04;;;;;;;2.40;2.20;;;18.10;99.90;;;;;;4208865;28;20060;-72
2022/06/06 06:21:19;;;;;;;3.25;2.20;;;18.00;99.90;;;;;;4208446;28;21189;-72
2022/06/06 06:23:28;;;;;;;2.40;2.20;;;18.00;99.90;;;;;;4206465;28;20092;-72
2022/06/06 06:25:34;;;;;;;2.80;2.40;;;18.00;99.90;;;;;;4203875;28;20064;-72
2022/06/06 06:27:36;;;;;;;4.97;2.70;;;18.00;99.90;;;;;;4205157;28;20099;-72
2022/06/06 06:29:39;;;;;;;2.30;2.10;;;18.10;99.90;;;;;;4210224;28;20962;-73
2022/06/06 06:32:15;;;;;;;2.78;2.58;;;18.20;99.90;;;;;;4200765;28;20871;-72
2022/06/06 06:34:43;;;;;;;3.67;2.13;;;18.20;99.90;;;;;;4210277;28;20067;-72
2022/06/06 06:37:14;;;;;;;2.38;2.17;;;18.30;99.90;;;;;;4203302;28;20061;-72
2022/06/06 06:39:26;;;;;;;2.28;2.05;;;18.20;99.90;;;;;;4214764;28;20160;-72
2022/06/06 06:42:16;;;;;;;3.25;2.80;;;18.20;99.90;;;;;;4201088;28;20057;-72
2022/06/06 06:44:29;;;;;;;3.33;2.50;;;18.20;99.90;;;;;;4158759;28;20062;-73
2022/06/06 06:46:41;;;;;;;2.10;1.88;;;18.20;99.90;;;;;;4189477;28;20126;-72
2022/06/06 06:48:51;;;;;;;2.80;2.60;;;18.30;99.90;;;;;;4201098;28;20060;-72
2022/06/06 06:51:01;;;;;;;4.93;2.40;;;18.40;99.90;;;;;;4202954;28;20061;-72
2022/06/06 06:53:27;;;;;;;2.35;2.15;;;18.40;99.90;;;;;;4204128;28;20040;-72
2022/06/06 06:55:49;;;;;;;2.40;2.20;;;18.50;99.90;;;;;;4207449;28;20144;-72
2022/06/06 06:58:10;;;;;;;4.07;2.55;;;18.50;99.90;;;;;;4205979;28;20147;-73
2022/06/06 07:00:17;;;;;;;2.55;2.35;;;18.40;99.90;;;;;;4207551;28;20095;-72
2022/06/06 07:10:38;;;;;;;2.42;1.90;;;19.10;99.80;;;;;;4207868;28;20061;-72
2022/06/06 07:12:59;;;;;;;4.88;2.08;;;19.20;99.90;;;;;;4212357;28;21092;-72
2022/06/06 07:15:25;;;;;;;6.40;2.63;;;19.30;98.90;;;;;;4209193;28;20087;-72
2022/06/06 07:17:32;;;;;;;2.70;2.28;;;19.30;99.60;;;;;;4209631;28;20060;-73
2022/06/06 07:19:52;;;;;;;2.92;2.67;;;19.40;99.90;;;;;;4210314;28;20171;-72
2022/06/06 07:21:58;;;;;;;2.67;2.47;;;19.40;99.50;;;;;;4207180;28;20436;-72
2022/06/06 07:24:04;;;;;;;3.17;2.45;;;19.50;98.40;;;;;;4206292;28;20180;-72
2022/06/06 07:26:08;;;;;;;5.35;2.83;;;19.40;96.30;;;;;;4212068;28;20056;-72
2022/06/06 07:28:13;;;;;;;4.97;2.28;;;19.30;95.90;;;;;;4213303;28;20256;-71
2022/06/06 07:30:15;;;;;;;3.72;2.53;;;19.20;95.50;;;;;;4205341;28;20082;-71
2022/06/06 07:32:27;;;;;;;2.65;2.15;;;19.20;96.80;;;;;;4202561;28;20911;-74
2022/06/06 07:34:55;;;;;;;3.95;2.63;;;19.30;96.60;;;;;;4204322;28;20055;-71
2022/06/06 07:37:05;;;;;;;4.43;2.40;;;19.20;95.00;;;;;;4212134;28;20063;-71
2022/06/06 07:39:16;;;;;;;;;;;19.10;94.10;;;;;;4207196;28;20173;-71
2022/06/06 07:41:41;;;;;;;4.72;2.58;;;19.10;95.30;;;;;;4208283;28;19924;-71
2022/06/06 07:44:02;;;;;;;2.58;1.95;;;19.20;94.30;;;;;;4202546;28;20114;-72
2022/06/06 07:46:22;;;;;;;5.72;2.33;;;19.40;94.70;;;;;;4210764;28;20166;-71
2022/06/06 07:48:51;;;;;;;1.90;1.75;;;19.50;92.80;;;;;;4211480;28;20057;-69
2022/06/06 07:51:13;;;;;;;2.67;2.25;;;19.70;92.70;;;;;;4212359;28;20155;-71
2022/06/06 07:53:27;;;;;;;2.00;1.90;;;19.90;92.60;;;;;;4209789;28;20056;-74
2022/06/06 07:55:34;;;;;;;3.35;2.20;;;20.10;92.10;;;;;;4209325;28;20052;-73
2022/06/06 07:58:03;;;;;;;2.13;1.92;;;20.20;91.80;;;;;;4208360;28;20141;-73
2022/06/06 08:00:12;;;;;;;2.10;1.70;;;20.20;91.60;;;;;;4207870;28;20103;-72
2022/06/06 08:02:20;;;;;;;3.90;1.90;;;20.10;90.50;;;;;;4209400;28;20067;-73
2022/06/06 08:04:48;;;;;;;2.53;1.90;;;20.00;92.10;;;;;;4208930;28;20060;-73
2022/06/06 08:07:23;;;;;;;5.25;2.00;;;19.90;92.20;;;;;;4208588;28;20051;-72
2022/06/06 08:09:53;;;;;;;3.25;2.30;;;19.80;92.70;;;;;;4211727;28;20052;-72
2022/06/06 08:12:14;;;;;;;3.10;2.03;;;19.70;92.30;;;;;;4203471;28;20631;-77
2022/06/06 08:14:31;;;;;;;3.88;1.65;;;19.60;92.40;;;;;;4211529;28;20118;-76
2022/06/06 08:16:47;;;;;;;2.63;1.90;;;19.70;92.40;;;;;;4206087;28;20060;-73
2022/06/06 08:19:03;;;;;;;1.77;1.67;;;19.70;91.90;;;;;;4204959;28;20107;-71
2022/06/06 08:21:32;;;;;;;2.08;1.88;;;19.80;92.20;;;;;;4206256;28;20099;-71
2022/06/06 08:23:37;;;;;;;1.92;1.30;;;19.70;88.70;;;;;;4207070;28;20643;-71
2022/06/06 08:25:43;;;;;;;1.50;1.40;;;19.60;87.50;;;;;;4207585;28;20067;-71
2022/06/06 08:27:50;;;;;;;2.83;1.42;;;19.70;89.30;;;;;;4207815;28;20049;-71
2022/06/06 08:29:52;;;;;;;2.22;1.65;;;20.00;89.30;;;;;;4207614;28;20060;-72
2022/06/06 08:31:54;;;;;;;2.67;1.65;;;20.20;89.80;;;;;;4207558;28;20049;-73
2022/06/06 08:33:56;;;;;;;1.58;1.48;;;20.30;88.30;;;;;;4205388;28;20135;-71
2022/06/06 08:36:17;;;;;;;2.13;1.30;;;20.40;88.00;;;;;;4211718;28;20056;-71
2022/06/06 08:38:40;;;;;;;2.90;1.30;;;20.50;86.00;;;;;;4208477;28;20060;-71
2022/06/06 08:41:19;;;;;;;1.17;1.08;;;20.50;82.50;;;;;;4206514;28;20120;-73
2022/06/06 08:43:55;;;;;;;1.65;1.13;;;20.70;83.00;;;;;;4204306;28;20060;-73
2022/06/06 08:46:19;;;;;;;8.05;1.50;;;20.80;82.70;;;;;;4209478;28;20052;-73
2022/06/06 08:48:43;;;;;;;1.20;1.10;;;21.00;83.00;;;;;;4210293;28;20087;-72
2022/06/06 08:51:01;;;;;;;1.42;1.05;;;21.10;77.50;;;;;;4211034;28;20188;-73
2022/06/06 08:53:23;;;;;;;1.75;1.13;;;21.10;76.60;;;;;;4206844;28;20103;-73
2022/06/06 08:55:30;;;;;;;1.30;1.20;;;21.20;77.40;;;;;;4215619;28;20188;-73
2022/06/06 08:58:10;;;;;;;2.55;1.25;;;21.20;75.10;;;;;;4208564;28;20056;-74
2022/06/06 09:01:05;;;;;;;2.22;1.05;;;21.30;75.40;;;;;;4208446;28;20057;-73
2022/06/06 09:03:32;;;;;;;1.10;0.98;;;21.40;74.00;;;;;;4139552;28;20070;-73
2022/06/06 09:05:59;;;;;;;1.25;1.20;;;21.80;75.50;;;;;;4133915;28;20105;-73
2022/06/06 09:08:10;;;;;;;1.35;1.20;;;22.00;75.50;;;;;;4174512;28;20100;-73
2022/06/06 09:10:33;;;;;;;1.42;1.33;;;22.20;73.20;;;;;;4207000;28;20047;-72
2022/06/06 09:12:54;;;;;;;1.02;1.00;;;22.10;71.40;;;;;;4204319;28;20748;-73
2022/06/06 09:15:12;;;;;;;2.22;0.85;;;22.10;70.90;;;;;;4206178;28;20061;-73
2022/06/06 09:17:43;;;;;;;1.55;1.00;;;22.00;70.50;;;;;;4207681;28;20103;-74
2022/06/06 09:20:07;;;;;;;1.17;1.08;;;22.00;73.30;;;;;;4207443;28;20085;-73
2022/06/06 09:22:52;;;;;;;3.85;1.33;;;21.80;73.70;;;;;;4212616;28;20167;-73
2022/06/06 09:25:31;;;;;;;1.77;1.23;;;21.60;72.50;;;;;;4209913;28;20834;-73
2022/06/06 09:28:03;;;;;;;1.05;1.02;;;21.50;72.40;;;;;;4210053;28;20058;-73
2022/06/06 09:30:42;;;;;;;1.90;1.00;;;21.40;69.40;;;;;;4212005;28;20056;-71
2022/06/06 09:32:50;;;;;;;0.90;0.75;;;21.30;72.70;;;;;;4206244;28;20053;-74
2022/06/06 09:35:07;;;;;;;1.70;1.00;;;21.30;69.70;;;;;;4212870;28;20753;-75
2022/06/06 09:37:33;;;;;;;0.98;0.90;;;21.30;71.40;;;;;;4217314;28;20100;-71
2022/06/06 09:40:15;;;;;;;1.17;1.08;;;21.30;71.90;;;;;;4194466;28;20151;-72
2022/06/06 09:42:52;;;;;;;1.58;1.33;;;21.50;72.30;;;;;;4211376;28;20129;-71
2022/06/06 09:44:57;;;;;;;2.15;0.70;;;21.70;70.80;;;;;;4213617;28;20061;-72
2022/06/06 09:47:21;;;;;;;0.88;0.88;;;21.70;70.30;;;;;;4211190;28;20084;-73
2022/06/06 09:49:47;;;;;;;1.00;0.80;;;21.50;71.00;;;;;;4213141;28;20068;-77
2022/06/06 09:52:14;;;;;;;3.38;0.70;;;21.40;69.40;;;;;;4213359;28;20784;-73
2022/06/06 10:00:47;;;;;;;1.35;0.82;;;21.90;68.90;;;;;;4214453;28;20056;-74
2022/06/06 10:03:26;;;;;;;3.22;1.00;;;21.90;68.40;;;;;;4206152;28;20060;-71
2022/06/06 10:05:37;;;;;;;1.35;0.95;;;21.90;70.00;;;;;;4207866;28;20053;-72
2022/06/06 10:07:57;;;;;;;3.40;0.90;;;22.30;70.20;;;;;;4212708;28;20057;-73
2022/06/06 10:10:02;;;;;;;0.90;0.85;;;22.40;67.80;;;;;;4201955;28;20172;-72
2022/06/06 10:12:07;;;;;;;1.45;1.00;;;22.30;66.50;;;;;;4206577;28;20055;-73
2022/06/06 10:14:17;;;;;;;1.20;1.10;;;22.20;68.40;;;;;;4210804;28;20044;-73
2022/06/06 10:16:48;;;;;;;;;;;22.30;68.90;;;;;;4206085;28;20115;-73
2022/06/06 10:19:08;;;;;;;1.10;1.00;;;22.50;69.50;;;;;;4192380;28;19929;-72
2022/06/06 10:21:49;;;;;;;2.92;1.13;;;22.50;66.40;;;;;;4207637;28;20088;-73
2022/06/06 10:24:10;;;;;;;2.10;0.95;;;22.30;67.30;;;;;;4170356;28;20056;-72
2022/06/06 10:26:31;;;;;;;1.77;1.10;;;22.20;69.00;;;;;;4210437;28;20053;-72
2022/06/06 10:28:59;;;;;;;1.05;0.95;;;22.10;70.20;;;;;;4206051;28;20097;-72
2022/06/06 10:31:46;;;;;;;1.25;0.93;;;22.10;71.80;;;;;;4208058;28;20179;-74
2022/06/06 10:34:09;;;;;;;0.70;0.70;;;22.20;69.20;;;;;;4195582;28;20103;-72
2022/06/06 10:36:22;;;;;;;0.95;0.93;;;22.30;68.60;;;;;;4206709;28;20052;-71
2022/06/06 10:38:55;;;;;;;1.15;1.13;;;22.20;66.80;;;;;;4209611;28;20060;-73
2022/06/06 10:41:07;;;;;;;3.90;1.00;;;22.20;68.70;;;;;;4207801;28;20096;-72
2022/06/06 10:43:20;;;;;;;1.00;0.95;;;22.20;68.80;;;;;;4210271;28;20088;-72
2022/06/06 10:45:25;;;;;;;1.40;1.00;;;22.10;68.40;;;;;;4212313;28;20052;-72
2022/06/06 10:48:02;;;;;;;1.58;1.15;;;22.10;69.40;;;;;;4211033;28;20040;-72
2022/06/06 10:50:15;;;;;;;1.13;0.95;;;21.90;68.90;;;;;;4211468;28;20060;-72
2022/06/06 10:52:42;;;;;;;1.33;1.20;;;21.70;70.00;;;;;;4209747;28;20199;-72
2022/06/06 10:55:17;;;;;;;1.23;0.98;;;21.80;68.50;;;;;;4210359;28;20056;-72
2022/06/06 10:57:52;;;;;;;0.95;0.95;;;22.20;69.60;;;;;;4211905;28;20122;-71
2022/06/06 11:00:32;;;;;;;2.35;1.15;;;22.60;66.40;;;;;;4208713;28;20052;-75
2022/06/06 11:02:57;;;;;;;1.60;1.40;;;23.20;64.50;;;;;;4203201;28;20611;-72
2022/06/06 11:05:36;;;;;;;0.95;0.80;;;23.20;63.40;;;;;;4206261;28;20064;-74
2022/06/06 11:08:05;;;;;;;0.55;0.55;;;23.30;64.20;;;;;;4207647;28;20857;-74
2022/06/06 11:10:44;;;;;;;1.63;1.00;;;23.20;63.80;;;;;;4219198;28;20977;-75
2022/06/06 11:13:27;;;;;;;1.67;0.88;;;22.80;62.70;;;;;;4138098;28;20122;-75
2022/06/06 11:16:06;;;;;;;1.70;1.02;;;22.60;64.90;;;;;;4200490;28;20095;-75
2022/06/06 11:18:20;;;;;;;3.85;0.98;;;22.70;65.60;;;;;;4204921;28;20821;-72
2022/06/06 11:20:59;;;;;;;0.98;0.75;;;22.70;65.00;;;;;;4205223;28;20052;-76
2022/06/06 11:23:32;;;;;;;1.90;1.00;;;22.70;64.30;;;;;;4211505;28;20142;-80
2022/06/06 11:25:48;;;;;;;1.52;0.75;;;22.60;64.80;;;;;;4202110;28;20066;-74
2022/06/06 11:28:11;;;;;;;0.75;0.75;;;22.50;63.30;;;;;;4208251;28;20072;-72
2022/06/06 11:30:29;;;;;;;0.77;0.77;;;22.50;64.60;;;;;;4202850;28;20057;-74
2022/06/06 11:33:00;;;;;;;3.15;1.10;;;22.50;66.80;;;;;;4201795;28;20064;-72
2022/06/06 11:35:27;;;;;;;1.30;1.00;;;22.50;66.80;;;;;;4205986;28;20087;-71
2022/06/06 11:37:47;;;;;;;0.80;0.77;;;22.40;65.80;;;;;;4201656;28;20063;-72
2022/06/06 11:40:27;;;;;;;1.00;0.90;;;22.50;65.20;;;;;;4196568;28;20057;-71
2022/06/06 11:42:50;;;;;;;1.25;0.70;;;22.60;64.20;;;;;;4203235;28;20400;-71
2022/06/06 11:45:17;;;;;;;0.80;0.75;;;22.60;65.90;;;;;;4210330;28;20103;-69
2022/06/06 11:47:40;;;;;;;1.55;1.00;;;22.60;63.90;;;;;;4211655;28;20057;-69
2022/06/06 11:50:11;;;;;;;1.10;0.98;;;22.50;62.80;;;;;;4209422;28;20175;-74
2022/06/06 11:52:42;;;;;;;1.77;1.00;;;22.50;63.30;;;;;;4209298;28;20931;-70
2022/06/06 11:55:02;;;;;;;1.48;0.90;;;22.60;63.80;;;;;;4209534;28;20751;-70
2022/06/06 11:57:19;;;;;;;0.88;0.88;;;22.70;63.70;;;;;;4208734;28;20056;-70
2022/06/06 11:59:37;;;;;;;0.75;0.75;;;22.80;62.60;;;;;;4208917;28;20060;-71
2022/06/06 12:02:09;;;;;;;1.88;1.00;;;22.70;62.20;;;;;;4229127;28;20060;-72
2022/06/06 12:04:44;;;;;;;1.00;0.90;;;22.50;61.10;;;;;;4207225;28;20045;-72
2022/06/06 12:07:00;;;;;;;0.95;0.95;;;22.10;62.20;;;;;;4210287;28;20067;-72
2022/06/06 12:09:15;;;;;;;1.10;0.95;;;21.90;63.20;;;;;;4213213;28;20844;-72
2022/06/06 12:11:38;;;;;;;0.68;0.68;;;21.90;64.80;;;;;;4213775;28;20761;-72